createdAt,value
2022-08-10T00:01:52.893Z,20.10
2022-08-10T00:04:24.307Z,20.06
2022-08-10T00:06:55.414Z,19.83
2022-08-10T00:09:23.652Z,19.79
2022-08-10T00:11:50.915Z,19.55
2022-08-10T00:14:18.353Z,19.05
2022-08-10T00:16:45.343Z,19.43
2022-08-10T00:19:12.179Z,19.43
2022-08-10T00:21:39.224Z,19.48
2022-08-10T00:24:06.177Z,19.73
2022-08-10T00:27:52.278Z,19.68
2022-08-10T00:29:21.059Z,19.62
2022-08-10T00:31:58.037Z,19.23
2022-08-10T00:34:25.650Z,18.84
2022-08-10T00:36:52.340Z,18.55
2022-08-10T00:39:19.042Z,19.01
2022-08-10T00:41:45.926Z,19.25
2022-08-10T00:44:32.633Z,19.25
2022-08-10T00:47:00.967Z,19.34
2022-08-10T00:49:28.750Z,19.40
2022-08-10T00:51:56.084Z,19.44
2022-08-10T00:54:24.120Z,19.28
2022-08-10T00:57:17.110Z,19.40
2022-08-10T00:59:58.504Z,19.39
2022-08-10T01:02:25.572Z,18.85
2022-08-10T01:04:59.981Z,18.33
2022-08-10T01:08:05.138Z,18.33
2022-08-10T01:10:52.757Z,18.36
2022-08-10T01:13:33.632Z,18.62
2022-08-10T01:16:25.831Z,18.69
2022-08-10T01:19:03.795Z,18.79
2022-08-10T01:22:01.641Z,18.66
2022-08-10T01:25:03.607Z,18.83
2022-08-10T01:27:45.849Z,18.37
2022-08-10T01:30:14.787Z,18.11
2022-08-10T01:33:10.789Z,18.24
2022-08-10T01:35:47.042Z,18.44
2022-08-10T01:38:19.237Z,18.51
2022-08-10T01:40:52.163Z,18.42
2022-08-10T01:43:20.448Z,18.39
2022-08-10T01:45:53.708Z,17.91
2022-08-10T01:48:30.874Z,18.12
2022-08-10T01:51:21.872Z,17.91
2022-08-10T01:53:57.683Z,17.94
2022-08-10T01:56:26.662Z,17.76
2022-08-10T01:58:58.507Z,17.98
2022-08-10T02:01:29.650Z,18.03
2022-08-10T02:04:05.203Z,17.98
2022-08-10T02:06:45.579Z,17.98
2022-08-10T02:09:17.522Z,18.13
2022-08-10T02:12:05.133Z,18.31
2022-08-10T02:14:34.939Z,18.04
2022-08-10T02:17:05.607Z,17.80
2022-08-10T02:19:35.708Z,17.63
2022-08-10T02:22:36.972Z,17.56
2022-08-10T02:24:52.499Z,17.22
2022-08-10T02:27:22.755Z,17.44
2022-08-10T02:29:51.910Z,17.38
2022-08-10T02:32:36.251Z,17.11
2022-08-10T02:35:17.786Z,17.38
2022-08-10T02:37:51.475Z,17.60
2022-08-10T02:45:11.044Z,17.64
2022-08-10T02:45:22.576Z,17.77
2022-08-10T02:46:08.526Z,17.65
2022-08-10T02:48:44.628Z,17.50
2022-08-10T02:52:06.523Z,17.62
2022-08-10T02:54:37.202Z,17.58
2022-08-10T02:57:13.818Z,17.63
2022-08-10T02:59:45.769Z,17.76
2022-08-10T03:02:16.559Z,17.75
2022-08-10T03:04:55.830Z,17.73
2022-08-10T03:07:44.341Z,17.83
2022-08-10T03:10:17.519Z,17.70
2022-08-10T03:12:49.539Z,17.34
2022-08-10T03:15:19.075Z,17.12
2022-08-10T03:17:57.665Z,17.06
2022-08-10T03:20:36.464Z,17.24
2022-08-10T03:23:11.490Z,17.62
2022-08-10T03:25:39.253Z,17.58
2022-08-10T03:28:07.160Z,17.27
2022-08-10T03:30:35.192Z,17.24
2022-08-10T03:33:07.713Z,16.99
2022-08-10T03:35:34.979Z,16.86
2022-08-10T03:38:02.331Z,17.13
2022-08-10T03:40:45.132Z,16.82
2022-08-10T03:43:23.838Z,16.93
2022-08-10T03:45:56.466Z,16.94
2022-08-10T03:48:44.820Z,17.16
2022-08-10T03:51:13.635Z,17.17
2022-08-10T03:54:05.459Z,17.25
2022-08-10T03:56:31.993Z,17.26
2022-08-10T03:59:00.159Z,16.67
2022-08-10T04:02:46.665Z,16.44
2022-08-10T04:04:17.819Z,16.01
2022-08-10T04:06:51.420Z,16.31
2022-08-10T04:09:22.633Z,16.35
2022-08-10T04:11:49.316Z,16.13
2022-08-10T04:14:44.977Z,16.06
2022-08-10T04:17:02.806Z,16.39
2022-08-10T04:19:34.422Z,16.30
2022-08-10T04:22:08.940Z,16.60
2022-08-10T04:24:38.174Z,16.66
2022-08-10T04:27:05.439Z,16.61
2022-08-10T04:29:32.834Z,16.73
2022-08-10T04:32:01.548Z,16.77
2022-08-10T04:34:31.961Z,16.84
2022-08-10T04:37:08.817Z,16.77
2022-08-10T04:39:36.296Z,16.60
2022-08-10T04:42:03.741Z,16.36
2022-08-10T04:44:30.603Z,16.03
2022-08-10T04:46:58.472Z,15.88
2022-08-10T04:49:55.550Z,16.21
2022-08-10T04:52:13.420Z,16.49
2022-08-10T04:54:40.180Z,16.71
2022-08-10T04:57:09.225Z,16.78
2022-08-10T04:59:36.276Z,17.19
2022-08-10T05:02:30.357Z,17.20
2022-08-10T05:04:49.968Z,17.31
2022-08-10T05:07:18.487Z,17.31
2022-08-10T05:10:03.788Z,17.56
2022-08-10T05:12:38.676Z,17.66
2022-08-10T05:15:07.679Z,17.82
2022-08-10T05:17:35.834Z,18.00
2022-08-10T05:20:06.873Z,18.06
2022-08-10T05:22:46.342Z,18.08
2022-08-10T05:25:18.274Z,17.97
2022-08-10T05:27:46.458Z,18.02
2022-08-10T05:30:19.733Z,17.97
2022-08-10T05:32:55.422Z,18.00
2022-08-10T05:35:27.484Z,17.92
2022-08-10T05:38:09.034Z,17.95
2022-08-10T05:40:46.260Z,18.30
2022-08-10T05:43:15.002Z,18.42
2022-08-10T05:46:19.851Z,18.32
2022-08-10T05:48:57.401Z,18.12
2022-08-10T05:51:20.432Z,18.64
2022-08-10T05:54:01.984Z,18.87
2022-08-10T05:56:54.727Z,18.68
2022-08-10T06:00:34.428Z,18.82
2022-08-10T06:02:31.817Z,19.11
2022-08-10T06:04:57.301Z,19.22
2022-08-10T06:07:27.505Z,19.31
2022-08-10T06:09:59.661Z,19.52
2022-08-10T06:12:30.973Z,19.64
2022-08-10T06:15:05.205Z,19.75
2022-08-10T06:17:33.321Z,19.54
2022-08-10T06:20:01.607Z,19.44
2022-08-10T06:22:32.533Z,19.85
2022-08-10T06:25:37.757Z,20.26
2022-08-10T06:27:49.694Z,20.43
2022-08-10T06:30:19.888Z,21.17
2022-08-10T06:32:51.551Z,21.17
2022-08-10T06:35:23.248Z,22.12
2022-08-10T06:37:54.525Z,22.14
2022-08-10T06:40:22.744Z,22.50
2022-08-10T06:42:53.805Z,22.46
2022-08-10T06:45:23.433Z,22.41
2022-08-10T06:48:02.923Z,23.57
2022-08-10T06:50:56.163Z,23.83
2022-08-10T06:53:52.111Z,23.70
2022-08-10T06:56:37.868Z,23.64
2022-08-10T06:59:26.138Z,24.22
2022-08-10T07:02:05.520Z,24.02
2022-08-10T07:04:51.592Z,23.60
2022-08-10T07:07:20.763Z,23.67
2022-08-10T07:09:49.419Z,23.99
2022-08-10T07:12:17.448Z,23.82
2022-08-10T07:14:46.418Z,24.16
2022-08-10T07:17:18.841Z,23.92
2022-08-10T07:19:57.874Z,24.39
2022-08-10T07:23:27.373Z,24.40
2022-08-10T07:25:21.300Z,24.48
2022-08-10T07:27:59.145Z,23.65
2022-08-10T07:30:36.899Z,23.70
2022-08-10T07:33:05.768Z,24.32
2022-08-10T07:35:42.548Z,25.41
2022-08-10T07:38:22.065Z,25.72
2022-08-10T07:40:51.860Z,25.85
2022-08-10T07:43:22.133Z,25.71
2022-08-10T07:45:53.993Z,26.13
2022-08-10T07:48:29.624Z,26.09
2022-08-10T07:51:00.299Z,27.23
2022-08-10T07:53:38.634Z,26.94
2022-08-10T07:56:20.840Z,26.16
2022-08-10T07:59:06.172Z,26.33
2022-08-10T08:01:35.759Z,26.50
2022-08-10T08:04:05.916Z,26.43
2022-08-10T08:06:40.338Z,26.70
2022-08-10T08:09:07.463Z,26.98
2022-08-10T08:11:36.714Z,26.25
2022-08-10T08:14:08.385Z,26.66
2022-08-10T08:16:40.682Z,26.17
2022-08-10T08:24:04.651Z,26.51
2022-08-10T08:24:47.012Z,26.54
2022-08-10T08:27:16.990Z,25.86
2022-08-10T08:29:47.147Z,26.45
2022-08-10T08:32:18.383Z,26.53
2022-08-10T08:34:47.636Z,26.31
2022-08-10T08:37:18.842Z,26.90
2022-08-10T08:40:12.196Z,26.58
2022-08-10T08:42:57.194Z,26.64
2022-08-10T08:45:35.851Z,26.90
2022-08-10T08:48:11.599Z,27.14
2022-08-10T08:50:57.691Z,27.60
2022-08-10T08:54:01.866Z,27.52
2022-08-10T08:57:08.422Z,27.77
2022-08-10T09:00:13.568Z,26.70
2022-08-10T09:03:07.779Z,27.07
2022-08-10T09:06:02.548Z,26.77
2022-08-10T09:09:11.768Z,27.12
2022-08-10T09:11:59.973Z,27.14
2022-08-10T09:14:38.746Z,27.03
2022-08-10T09:17:25.338Z,27.37
2022-08-10T09:20:16.220Z,27.53
2022-08-10T09:23:08.240Z,27.33
2022-08-10T09:25:38.169Z,27.42
2022-08-10T09:28:08.098Z,27.33
2022-08-10T09:30:52.380Z,27.48
2022-08-10T09:36:23.508Z,27.68
2022-08-10T09:36:56.379Z,28.21
2022-08-10T09:40:58.321Z,27.44
2022-08-10T09:42:21.199Z,27.80
2022-08-10T09:44:58.863Z,27.63
2022-08-10T09:48:00.745Z,27.92
2022-08-10T09:54:07.730Z,27.28
2022-08-10T10:00:13.009Z,27.92
2022-08-10T10:03:13.551Z,28.43
2022-08-10T10:06:12.578Z,28.53
2022-08-10T10:09:36.593Z,28.62
2022-08-10T10:12:16.776Z,28.45
2022-08-10T10:15:25.079Z,27.65
2022-08-10T10:18:07.677Z,28.56
2022-08-10T10:20:56.208Z,28.27
2022-08-10T10:23:40.878Z,27.87
2022-08-10T10:26:22.709Z,27.98
2022-08-10T10:29:30.894Z,28.64
2022-08-10T10:32:13.226Z,28.05
2022-08-10T10:35:09.486Z,28.43
2022-08-10T10:38:01.887Z,28.20
2022-08-10T10:40:27.346Z,28.16
2022-08-10T10:43:31.452Z,28.12
2022-08-10T10:46:33.712Z,28.35
2022-08-10T10:49:22.270Z,27.60
2022-08-10T10:52:04.988Z,27.61
2022-08-10T10:54:41.092Z,28.14
2022-08-10T10:57:58.199Z,28.51
2022-08-10T11:00:13.445Z,28.00
2022-08-10T11:03:30.902Z,28.59
2022-08-10T11:06:39.817Z,28.54
2022-08-10T11:10:04.569Z,28.82
2022-08-10T11:12:19.630Z,27.83
2022-08-10T11:15:05.194Z,28.25
2022-08-10T11:17:48.976Z,28.20
2022-08-10T11:20:22.540Z,28.80
2022-08-10T11:23:40.367Z,28.70
2022-08-10T11:26:14.021Z,28.70
2022-08-10T11:28:47.056Z,28.33
2022-08-10T11:31:25.471Z,27.80
2022-08-10T11:34:47.361Z,28.87
2022-08-10T11:36:57.148Z,28.52
2022-08-10T11:39:49.694Z,28.76
2022-08-10T11:42:36.493Z,28.79
2022-08-10T11:45:14.941Z,29.26
2022-08-10T11:47:41.528Z,29.08
2022-08-10T11:50:11.205Z,29.11
2022-08-10T11:52:55.422Z,29.31
2022-08-10T11:55:32.934Z,28.98
2022-08-10T11:58:45.108Z,28.84
2022-08-10T12:01:15.750Z,29.18
2022-08-10T12:03:44.829Z,29.18
2022-08-10T12:06:17.249Z,28.91
2022-08-10T12:10:05.135Z,29.11
2022-08-10T12:11:40.642Z,29.28
2022-08-10T12:14:22.285Z,29.51
2022-08-10T12:16:55.562Z,29.74
2022-08-10T12:19:31.336Z,29.47
2022-08-10T12:22:23.263Z,29.11
2022-08-10T12:24:57.078Z,29.05
2022-08-10T12:27:52.539Z,29.13
2022-08-10T12:30:26.670Z,29.07
2022-08-10T12:33:07.982Z,29.12
2022-08-10T12:35:37.787Z,29.27
2022-08-10T12:38:15.692Z,29.62
2022-08-10T12:40:50.146Z,29.24
2022-08-10T12:44:04.324Z,29.19
2022-08-10T12:46:20.005Z,28.70
2022-08-10T12:49:17.747Z,28.76
2022-08-10T12:51:58.660Z,28.62
2022-08-10T12:54:32.306Z,27.97
2022-08-10T12:57:10.286Z,27.64
2022-08-10T12:59:50.097Z,27.91
2022-08-10T13:02:24.446Z,28.09
2022-08-10T13:04:53.585Z,27.75
2022-08-10T13:08:25.964Z,27.50
2022-08-10T13:10:18.267Z,27.86
2022-08-10T13:12:48.969Z,28.21
2022-08-10T13:15:49.839Z,27.80
2022-08-10T13:18:25.361Z,27.57
2022-08-10T13:20:54.967Z,27.66
2022-08-10T13:23:27.041Z,27.94
2022-08-10T13:25:56.944Z,27.90
2022-08-10T13:28:39.898Z,28.31
2022-08-10T13:31:11.363Z,28.49
2022-08-10T13:34:39.954Z,27.90
2022-08-10T13:36:38.613Z,28.67
2022-08-10T13:39:08.546Z,27.84
2022-08-10T13:41:41.134Z,27.93
2022-08-10T13:44:17.516Z,27.57
2022-08-10T13:46:51.751Z,27.96
2022-08-10T13:49:21.001Z,28.53
2022-08-10T13:51:54.093Z,28.76
2022-08-10T13:54:27.779Z,29.32
2022-08-10T13:56:58.148Z,29.85
2022-08-10T14:00:34.359Z,29.61
2022-08-10T14:02:25.182Z,29.81
2022-08-10T14:04:54.571Z,29.44
2022-08-10T14:07:24.063Z,29.48
2022-08-10T14:09:53.282Z,29.57
2022-08-10T14:12:32.191Z,30.13
2022-08-10T14:15:03.651Z,29.90
2022-08-10T14:17:32.406Z,30.00
2022-08-10T14:20:02.433Z,30.01
2022-08-10T14:22:33.930Z,30.00
2022-08-10T14:25:09.965Z,30.16
2022-08-10T14:28:03.072Z,29.80
2022-08-10T14:30:31.380Z,29.93
2022-08-10T14:33:04.264Z,29.52
2022-08-10T14:36:19.562Z,29.96
2022-08-10T14:38:31.817Z,29.15
2022-08-10T14:41:02.075Z,29.53
2022-08-10T14:43:35.418Z,29.83
2022-08-10T14:46:11.518Z,30.37
2022-08-10T14:48:47.623Z,30.36
2022-08-10T14:51:18.062Z,30.06
2022-08-10T14:53:54.161Z,29.49
2022-08-10T14:56:33.288Z,29.85
2022-08-10T14:59:07.619Z,29.53
2022-08-10T15:02:00.372Z,29.91
2022-08-10T15:04:28.546Z,29.77
2022-08-10T15:07:01.146Z,29.58
2022-08-10T15:09:59.510Z,29.68
2022-08-10T15:12:27.189Z,29.69
2022-08-10T15:14:58.134Z,29.32
2022-08-10T15:17:36.885Z,29.88
2022-08-10T15:20:20.236Z,29.75
2022-08-10T15:22:56.743Z,29.62
2022-08-10T15:25:26.349Z,29.53
2022-08-10T15:28:05.228Z,29.61
2022-08-10T15:30:43.057Z,29.66
2022-08-10T15:33:57.475Z,29.94
2022-08-10T15:37:01.997Z,29.62
2022-08-10T15:40:24.575Z,29.45
2022-08-10T15:43:20.869Z,29.52
2022-08-10T15:45:59.279Z,29.81
2022-08-10T15:48:30.592Z,29.97
2022-08-10T15:51:05.762Z,30.16
2022-08-10T15:53:48.971Z,30.16
2022-08-10T15:56:34.534Z,29.65
2022-08-10T15:59:19.603Z,29.51
2022-08-10T16:02:14.811Z,29.47
2022-08-10T16:04:57.948Z,28.29
2022-08-10T16:07:45.295Z,28.44
2022-08-10T16:10:26.382Z,28.69
2022-08-10T16:13:01.513Z,28.94
2022-08-10T16:15:31.307Z,29.53
2022-08-10T16:18:04.477Z,29.81
2022-08-10T16:20:48.031Z,29.52
2022-08-10T16:23:35.788Z,29.42
2022-08-10T16:26:15.227Z,29.54
2022-08-10T16:28:49.509Z,29.77
2022-08-10T16:31:25.674Z,29.70
2022-08-10T16:33:55.492Z,29.49
2022-08-10T16:36:32.134Z,29.44
2022-08-10T16:38:59.762Z,29.12
2022-08-10T16:42:03.306Z,27.84
2022-08-10T16:44:19.911Z,27.04
2022-08-10T16:46:48.130Z,27.08
2022-08-10T16:49:18.079Z,26.05
2022-08-10T16:51:49.713Z,26.32
2022-08-10T16:54:26.200Z,26.36
2022-08-10T16:56:59.370Z,25.66
2022-08-10T16:59:30.943Z,25.66
2022-08-10T17:02:00.508Z,25.23
2022-08-10T17:04:29.157Z,25.22
2022-08-10T17:07:02.996Z,24.87
2022-08-10T17:09:33.175Z,24.96
2022-08-10T17:12:06.141Z,24.89
2022-08-10T17:14:32.890Z,24.82
2022-08-10T17:17:05.599Z,24.87
2022-08-10T17:19:39.886Z,24.58
2022-08-10T17:22:26.775Z,24.82
2022-08-10T17:25:00.397Z,25.08
2022-08-10T17:28:32.708Z,24.92
2022-08-10T17:30:34.089Z,25.28
2022-08-10T17:33:16.771Z,25.31
2022-08-10T17:35:48.727Z,25.90
2022-08-10T17:38:21.200Z,26.07
2022-08-10T17:40:57.845Z,25.76
2022-08-10T17:44:00.696Z,25.79
2022-08-10T17:46:14.710Z,25.31
2022-08-10T17:48:43.375Z,25.54
2022-08-10T17:51:14.055Z,25.66
2022-08-10T17:53:48.451Z,25.89
2022-08-10T17:56:23.744Z,26.05
2022-08-10T17:58:55.085Z,25.87
2022-08-10T18:01:40.764Z,25.95
2022-08-10T18:04:19.413Z,25.54
2022-08-10T18:06:56.681Z,25.90
2022-08-10T18:09:34.605Z,25.85
2022-08-10T18:12:10.156Z,26.07
2022-08-10T18:14:38.775Z,25.86
2022-08-10T18:17:15.175Z,25.74
2022-08-10T18:19:46.246Z,25.17
2022-08-10T18:22:14.185Z,25.26
2022-08-10T18:24:42.684Z,25.14
2022-08-10T18:27:12.401Z,25.52
2022-08-10T18:29:42.589Z,25.61
2022-08-10T18:32:11.374Z,25.93
2022-08-10T18:34:41.152Z,25.41
2022-08-10T18:37:19.847Z,25.36
2022-08-10T18:39:49.126Z,25.60
2022-08-10T18:42:21.547Z,26.07
2022-08-10T18:45:04.978Z,25.99
2022-08-10T18:47:35.289Z,26.37
2022-08-10T18:50:12.480Z,26.39
2022-08-10T18:52:43.128Z,26.36
2022-08-10T18:55:24.553Z,26.32
2022-08-10T18:58:01.006Z,26.59
2022-08-10T19:00:53.917Z,26.42
2022-08-10T19:03:39.619Z,26.53
2022-08-10T19:06:45.550Z,26.31
2022-08-10T19:09:47.656Z,26.30
2022-08-10T19:12:36.989Z,25.82
2022-08-10T19:15:16.479Z,25.56
2022-08-10T19:18:14.097Z,25.83
2022-08-10T19:20:59.580Z,25.81
2022-08-10T19:23:34.804Z,25.63
2022-08-10T19:26:37.980Z,25.59
2022-08-10T19:29:10.080Z,25.46
2022-08-10T19:31:54.591Z,25.47
2022-08-10T19:34:38.982Z,25.31
2022-08-10T19:37:37.310Z,25.37
2022-08-10T19:40:16.557Z,25.10
2022-08-10T19:43:09.213Z,25.07
2022-08-10T19:46:01.275Z,25.00
2022-08-10T19:48:43.335Z,25.02
2022-08-10T19:51:30.148Z,24.89
2022-08-10T19:54:03.802Z,25.01
2022-08-10T19:56:40.109Z,24.98
2022-08-10T20:00:16.935Z,24.89
2022-08-10T20:02:26.226Z,24.64
2022-08-10T20:05:07.082Z,24.52
2022-08-10T20:07:58.582Z,24.82
2022-08-10T20:10:42.728Z,24.63
2022-08-10T20:13:25.975Z,24.60
2022-08-10T20:16:02.931Z,24.72
2022-08-10T20:18:42.542Z,24.42
2022-08-10T20:21:16.582Z,24.34
2022-08-10T20:23:56.455Z,24.19
2022-08-10T20:26:41.088Z,24.19
2022-08-10T20:29:16.390Z,24.16
2022-08-10T20:32:24.600Z,24.11
2022-08-10T20:34:58.338Z,23.86
2022-08-10T20:37:43.463Z,23.91
2022-08-10T20:40:53.883Z,23.93
2022-08-10T20:43:32.759Z,23.54
2022-08-10T20:46:28.098Z,23.69
2022-08-10T20:49:22.692Z,23.82
2022-08-10T20:51:58.990Z,23.59
2022-08-10T20:54:35.287Z,23.64
2022-08-10T20:57:55.382Z,23.55
2022-08-10T21:00:13.728Z,23.30
2022-08-10T21:03:20.878Z,23.37
2022-08-10T21:06:03.292Z,23.31
2022-08-10T21:08:46.769Z,23.17
2022-08-10T21:11:32.143Z,23.22
2022-08-10T21:14:20.770Z,23.18
2022-08-10T21:16:50.279Z,23.19
2022-08-10T21:19:56.284Z,23.25
2022-08-10T21:22:31.719Z,23.07
2022-08-10T21:25:29.741Z,23.20
2022-08-10T21:27:59.438Z,23.21
2022-08-10T21:30:47.084Z,23.09
2022-08-10T21:33:45.161Z,22.88
2022-08-10T21:36:27.230Z,22.71
2022-08-10T21:39:16.129Z,22.58
2022-08-10T21:42:43.423Z,22.85
2022-08-10T21:45:59.518Z,22.70
2022-08-10T21:48:57.709Z,22.54
2022-08-10T21:52:05.136Z,22.64
2022-08-10T21:55:10.437Z,22.64
2022-08-10T21:58:15.428Z,22.63
2022-08-10T22:01:06.812Z,22.45
2022-08-10T22:03:59.719Z,22.34
2022-08-10T22:06:52.508Z,22.23
2022-08-10T22:10:00.176Z,22.38
2022-08-10T22:12:52.580Z,22.24
2022-08-10T22:16:03.834Z,21.95
2022-08-10T22:18:58.821Z,22.10
2022-08-10T22:21:59.433Z,22.01
2022-08-10T22:25:19.122Z,22.04
2022-08-10T22:28:12.502Z,22.08
2022-08-10T22:31:30.188Z,21.92
2022-08-10T22:34:59.656Z,21.78
2022-08-10T22:37:53.849Z,21.76
2022-08-10T22:40:42.179Z,21.83
2022-08-10T22:43:38.249Z,21.64
2022-08-10T22:46:42.250Z,21.60
2022-08-10T22:49:09.559Z,21.58
2022-08-10T22:51:54.630Z,21.61
2022-08-10T22:54:42.221Z,21.41
2022-08-10T22:57:34.321Z,20.98
2022-08-10T23:00:31.451Z,21.10
2022-08-10T23:03:22.444Z,21.40
2022-08-10T23:06:04.357Z,21.33
2022-08-10T23:08:40.965Z,21.22
2022-08-10T23:11:12.711Z,20.81
2022-08-10T23:13:43.799Z,20.89
2022-08-10T23:16:36.232Z,20.93
2022-08-10T23:19:24.806Z,20.88
2022-08-10T23:22:15.860Z,20.94
2022-08-10T23:25:04.416Z,20.61
2022-08-10T23:27:38.628Z,20.75
2022-08-10T23:30:16.973Z,20.81
2022-08-10T23:32:48.021Z,20.62
2022-08-10T23:36:05.514Z,20.59
2022-08-10T23:38:09.409Z,20.82
2022-08-10T23:40:36.912Z,20.70
2022-08-10T23:43:05.575Z,20.47
2022-08-10T23:45:53.179Z,20.37
2022-08-10T23:48:23.419Z,20.41
2022-08-10T23:50:59.595Z,20.38
2022-08-10T23:53:30.887Z,20.22
2022-08-10T23:56:05.227Z,20.17
2022-08-10T23:58:36.056Z,20.23
